Time;durP1;ratioP1;P1;durP2;ratioP2;P2;SDS_P1;SDS_P2;PMS_P1;PMS_P2;Temp;Humidity;BMP_temperature;BMP_pressure;BME280_temperature;BME280_humidity;BME280_pressure;Samples;Min_cycle;Max_cycle;Signal;HPM_P1;HPM_P2
2024/04/23 00:01:30;;;;;;;13.55;8.60;;;;;;;;;;5413945;26;20039;-65
2024/04/23 00:03:56;;;;;;;13.48;8.60;;;;;;;;;;5413126;26;19992;-65
2024/04/23 00:06:22;;;;;;;13.55;8.77;;;;;;;;;;5413923;26;20018;-65
2024/04/23 00:08:48;;;;;;;13.65;9.00;;;;;;;;;;5413682;26;20011;-65
2024/04/23 00:11:14;;;;;;;13.60;8.65;;;;;;;;;;5413347;26;20485;-65
2024/04/23 00:13:40;;;;;;;13.68;8.85;;;;;;;;;;5413050;26;19991;-65
2024/04/23 00:16:06;;;;;;;13.80;9.10;;;;;;;;;;5441872;26;20002;-65
2024/04/23 00:18:32;;;;;;;13.80;9.20;;;;;;;;;;5447794;26;20318;-65
2024/04/23 00:20:58;;;;;;;13.77;9.02;;;;;;;;;;5449422;26;20010;-65
2024/04/23 00:23:24;;;;;;;13.60;8.77;;;;;;;;;;5448984;26;19995;-65
2024/04/23 00:25:50;;;;;;;13.80;9.30;;;;;;;;;;5449884;26;20005;-64
2024/04/23 00:28:16;;;;;;;13.70;9.00;;;;;;;;;;5449506;26;19994;-64
2024/04/23 00:30:42;;;;;;;13.50;8.65;;;;;;;;;;5449632;26;20001;-65
2024/04/23 00:33:08;;;;;;;13.77;9.10;;;;;;;;;;5448409;26;20003;-64
2024/04/23 00:35:35;;;;;;;13.65;8.80;;;;;;;;;;5449369;26;20006;-66
2024/04/23 00:38:01;;;;;;;13.60;8.73;;;;;;;;;;5449257;26;20011;-64
2024/04/23 00:40:31;;;;;;;13.63;8.85;;;;;;;;;;5448494;26;20010;-65
2024/04/23 00:42:57;;;;;;;13.75;8.98;;;;;;;;;;5448932;26;20605;-64
2024/04/23 00:45:29;;;;;;;13.75;9.10;;;;;;;;;;5447789;26;20639;-64
2024/04/23 00:47:55;;;;;;;13.70;8.90;;;;;;;;;;5449441;26;19995;-65
2024/04/23 00:50:21;;;;;;;13.70;8.80;;;;;;;;;;5449191;26;20677;-65
2024/04/23 00:52:47;;;;;;;13.73;9.10;;;;;;;;;;5449554;26;20071;-65
2024/04/23 00:55:14;;;;;;;13.80;9.10;;;;;;;;;;5449040;26;19998;-65
2024/04/23 00:57:40;;;;;;;13.68;9.00;;;;;;;;;;5449273;26;20012;-65
2024/04/23 01:00:06;;;;;;;13.68;8.98;;;;;;;;;;5448778;26;19994;-64
2024/04/23 01:02:32;;;;;;;13.60;8.70;;;;;;;;;;5448518;26;19994;-64
2024/04/23 01:04:58;;;;;;;13.70;8.93;;;;;;;;;;5446703;26;20069;-64
2024/04/23 01:07:26;;;;;;;13.70;8.90;;;;;;;;;;5449020;26;19995;-65
2024/04/23 01:09:52;;;;;;;13.80;9.05;;;;;;;;;;5448740;26;20064;-66
2024/04/23 01:12:18;;;;;;;13.77;9.07;;;;;;;;;;5448393;26;20009;-65
2024/04/23 01:14:46;;;;;;;13.75;8.90;;;;;;;;;;5448235;26;19995;-65
2024/04/23 01:17:12;;;;;;;13.73;8.95;;;;;;;;;;5449026;26;20059;-64
2024/04/23 01:19:40;;;;;;;13.65;8.80;;;;;;;;;;5448897;26;20003;-64
2024/04/23 01:22:21;;;;;;;13.77;9.13;;;;;;;;;;5448294;26;20063;-64
2024/04/23 01:24:50;;;;;;;13.60;8.60;;;;;;;;;;5448318;26;19999;-63
2024/04/23 01:27:16;;;;;;;13.60;8.68;;;;;;;;;;5448426;26;20490;-64
2024/04/23 01:29:44;;;;;;;13.60;8.60;;;;;;;;;;5448282;26;20089;-64
2024/04/23 01:32:10;;;;;;;13.40;8.15;;;;;;;;;;5448414;26;19991;-65
2024/04/23 01:34:36;;;;;;;13.45;8.25;;;;;;;;;;5447933;26;20683;-65
2024/04/23 01:37:04;;;;;;;13.30;8.10;;;;;;;;;;5446434;26;20375;-64
2024/04/23 01:39:30;;;;;;;13.40;8.20;;;;;;;;;;5448352;26;20006;-64
2024/04/23 01:41:58;;;;;;;13.45;8.20;;;;;;;;;;5447938;26;20618;-65
2024/04/23 01:44:24;;;;;;;13.52;8.38;;;;;;;;;;5447706;26;20717;-64
2024/04/23 01:46:50;;;;;;;13.45;8.18;;;;;;;;;;5448290;26;19995;-64
2024/04/23 01:49:16;;;;;;;13.50;8.20;;;;;;;;;;5448286;26;20003;-65
2024/04/23 01:51:42;;;;;;;13.40;8.10;;;;;;;;;;5449445;26;20005;-65
2024/04/23 01:54:08;;;;;;;13.38;8.00;;;;;;;;;;5446535;26;19995;-64
2024/04/23 01:56:34;;;;;;;13.18;7.72;;;;;;;;;;5448581;26;20116;-65
2024/04/23 01:59:00;;;;;;;13.60;8.60;;;;;;;;;;5447363;26;19995;-64
2024/04/23 02:01:27;;;;;;;13.38;8.00;;;;;;;;;;5447767;26;19995;-64
2024/04/23 02:03:53;;;;;;;13.38;8.10;;;;;;;;;;5447321;26;20067;-65
2024/04/23 02:06:19;;;;;;;13.45;8.13;;;;;;;;;;5448136;26;20003;-65
2024/04/23 02:08:45;;;;;;;13.40;8.00;;;;;;;;;;5447715;26;20529;-66
2024/04/23 02:11:11;;;;;;;13.10;7.70;;;;;;;;;;5448102;26;20039;-65
2024/04/23 02:13:37;;;;;;;13.25;7.85;;;;;;;;;;5447432;26;19998;-65
2024/04/23 02:16:03;;;;;;;13.40;8.00;;;;;;;;;;5447662;26;19991;-65
2024/04/23 02:18:29;;;;;;;13.45;8.20;;;;;;;;;;5448149;26;20010;-65
2024/04/23 02:20:55;;;;;;;13.27;7.85;;;;;;;;;;5447803;26;19987;-66
2024/04/23 02:23:21;;;;;;;13.30;7.80;;;;;;;;;;5447553;26;20001;-66
2024/04/23 02:25:47;;;;;;;13.35;8.00;;;;;;;;;;5445841;26;20489;-65
2024/04/23 02:28:13;;;;;;;13.20;7.90;;;;;;;;;;5447349;26;19995;-66
2024/04/23 02:30:39;;;;;;;13.25;8.00;;;;;;;;;;5447222;26;20448;-65
2024/04/23 02:33:10;;;;;;;13.38;8.20;;;;;;;;;;5447023;26;20036;-65
2024/04/23 02:35:36;;;;;;;13.30;7.97;;;;;;;;;;5447638;26;19994;-65
2024/04/23 02:38:02;;;;;;;13.23;7.70;;;;;;;;;;5447528;26;19998;-65
2024/04/23 02:40:28;;;;;;;13.30;7.80;;;;;;;;;;5447768;26;19995;-66
2024/04/23 02:42:56;;;;;;;13.32;7.90;;;;;;;;;;5447292;26;20449;-65
2024/04/23 02:45:22;;;;;;;13.25;7.80;;;;;;;;;;5447576;26;19998;-65
2024/04/23 02:47:48;;;;;;;13.00;7.50;;;;;;;;;;5447777;26;20071;-64
2024/04/23 02:50:14;;;;;;;13.20;7.70;;;;;;;;;;5447169;26;20002;-64
2024/04/23 02:52:40;;;;;;;12.98;7.60;;;;;;;;;;5446523;26;20447;-65
2024/04/23 02:55:06;;;;;;;13.30;7.80;;;;;;;;;;5446930;26;20006;-66
2024/04/23 02:57:32;;;;;;;13.32;7.80;;;;;;;;;;5447252;26;19987;-65
2024/04/23 02:59:57;;;;;;;13.27;7.90;;;;;;;;;;5447298;26;20382;-66
2024/04/23 03:02:23;;;;;;;12.95;7.50;;;;;;;;;;5446758;26;20031;-65
2024/04/23 03:04:49;;;;;;;13.15;7.65;;;;;;;;;;5446663;26;20402;-65
2024/04/23 03:07:15;;;;;;;12.95;7.47;;;;;;;;;;5447309;26;20030;-65
2024/04/23 03:09:41;;;;;;;13.20;7.60;;;;;;;;;;5447076;26;20064;-65
2024/04/23 03:12:07;;;;;;;13.25;7.85;;;;;;;;;;5446802;26;19995;-65
2024/04/23 03:14:33;;;;;;;13.20;7.70;;;;;;;;;;5446381;26;20126;-65
2024/04/23 03:16:59;;;;;;;13.27;7.75;;;;;;;;;;5447605;26;19990;-66
2024/04/23 03:19:25;;;;;;;13.23;7.72;;;;;;;;;;5445113;26;20444;-65
2024/04/23 03:21:53;;;;;;;13.02;7.53;;;;;;;;;;5446405;26;19991;-66
2024/04/23 03:24:19;;;;;;;13.18;7.65;;;;;;;;;;5446258;26;20623;-65
2024/04/23 03:26:45;;;;;;;12.68;7.32;;;;;;;;;;5447015;26;19991;-66
2024/04/23 03:29:11;;;;;;;12.65;7.30;;;;;;;;;;5447026;26;20003;-65
2024/04/23 03:31:37;;;;;;;12.65;7.32;;;;;;;;;;5446256;26;19995;-65
2024/04/23 03:34:03;;;;;;;12.80;7.40;;;;;;;;;;5445278;26;20006;-66
2024/04/23 03:36:29;;;;;;;13.15;7.60;;;;;;;;;;5445781;26;20518;-67
2024/04/23 03:38:55;;;;;;;13.00;7.50;;;;;;;;;;5446323;26;20003;-66
2024/04/23 03:41:21;;;;;;;12.05;7.10;;;;;;;;;;5444261;26;20002;-64
2024/04/23 03:43:47;;;;;;;12.18;7.00;;;;;;;;;;5446045;26;20002;-65
2024/04/23 03:46:13;;;;;;;12.15;7.25;;;;;;;;;;5446774;26;19995;-65
2024/04/23 03:48:39;;;;;;;12.10;7.03;;;;;;;;;;5445940;26;19995;-65
2024/04/23 03:51:05;;;;;;;12.05;7.00;;;;;;;;;;5446110;26;20060;-65
2024/04/23 03:53:31;;;;;;;12.38;7.30;;;;;;;;;;5445320;26;19991;-65
2024/04/23 03:55:58;;;;;;;12.10;7.00;;;;;;;;;;5445999;26;20087;-65
2024/04/23 03:58:23;;;;;;;11.45;6.70;;;;;;;;;;5445525;26;20457;-65
2024/04/23 04:00:49;;;;;;;12.30;7.13;;;;;;;;;;5445877;26;19998;-65
2024/04/23 04:06:06;;;;;;;12.38;7.18;;;;;;;;;;5446120;26;20369;-65
2024/04/23 04:08:38;;;;;;;12.48;7.20;;;;;;;;;;5446334;26;20424;-64
2024/04/23 04:11:04;;;;;;;12.30;7.10;;;;;;;;;;5445618;26;19995;-66
2024/04/23 04:13:31;;;;;;;12.70;7.32;;;;;;;;;;5445618;26;20060;-66
2024/04/23 04:15:57;;;;;;;12.43;7.18;;;;;;;;;;5446282;26;20005;-65
2024/04/23 04:18:23;;;;;;;12.20;7.10;;;;;;;;;;5445441;26;20398;-65
2024/04/23 04:20:49;;;;;;;11.95;6.95;;;;;;;;;;5446837;26;20055;-65
2024/04/23 04:23:15;;;;;;;11.77;6.82;;;;;;;;;;5433012;26;20008;-65
2024/04/23 04:25:41;;;;;;;11.15;6.47;;;;;;;;;;5416006;26;20337;-66
2024/04/23 04:28:07;;;;;;;10.65;6.22;;;;;;;;;;5439120;26;20018;-65
2024/04/23 04:30:33;;;;;;;11.18;6.50;;;;;;;;;;5448959;26;20381;-65
2024/04/23 04:32:59;;;;;;;11.30;6.60;;;;;;;;;;5412710;26;19991;-64
2024/04/23 04:35:25;;;;;;;11.80;6.90;;;;;;;;;;5413440;26;19991;-66
2024/04/23 04:37:51;;;;;;;12.18;7.10;;;;;;;;;;5413279;26;20028;-65
2024/04/23 04:40:17;;;;;;;12.43;7.15;;;;;;;;;;5430426;26;19995;-65
2024/04/23 04:42:42;;;;;;;12.65;7.30;;;;;;;;;;5448856;26;20437;-65
2024/04/23 04:45:09;;;;;;;12.82;7.40;;;;;;;;;;5448725;26;20014;-65
2024/04/23 04:47:35;;;;;;;12.43;7.18;;;;;;;;;;5449077;26;20080;-65
2024/04/23 04:50:01;;;;;;;12.80;7.40;;;;;;;;;;5448687;26;20003;-64
2024/04/23 04:52:26;;;;;;;12.70;7.40;;;;;;;;;;5448625;26;20071;-65
2024/04/23 04:54:52;;;;;;;12.93;7.50;;;;;;;;;;5448236;26;20333;-65
2024/04/23 04:57:18;;;;;;;12.95;7.47;;;;;;;;;;5431257;26;20047;-65
2024/04/23 04:59:45;;;;;;;13.05;7.60;;;;;;;;;;5412880;26;20390;-65
2024/04/23 05:02:11;;;;;;;12.85;7.38;;;;;;;;;;5412021;26;19991;-65
2024/04/23 05:04:36;;;;;;;13.40;8.27;;;;;;;;;;5412878;26;20064;-65
2024/04/23 05:07:02;;;;;;;13.20;7.70;;;;;;;;;;5413078;26;20505;-65
2024/04/23 05:09:28;;;;;;;12.85;7.55;;;;;;;;;;5412451;26;20031;-65
2024/04/23 05:11:54;;;;;;;13.10;7.53;;;;;;;;;;5411899;26;20037;-65
2024/04/23 05:14:20;;;;;;;13.00;7.50;;;;;;;;;;5412311;26;19991;-64
2024/04/23 05:16:46;;;;;;;13.00;7.53;;;;;;;;;;5412407;26;19996;-64
2024/04/23 05:19:12;;;;;;;12.73;7.40;;;;;;;;;;5411409;26;19995;-64
2024/04/23 05:21:38;;;;;;;13.30;7.80;;;;;;;;;;5411356;26;20498;-64
2024/04/23 05:24:04;;;;;;;13.07;7.68;;;;;;;;;;5410068;26;20072;-66
2024/04/23 05:26:30;;;;;;;13.35;8.00;;;;;;;;;;5411259;26;20503;-63
2024/04/23 05:28:57;;;;;;;13.40;7.90;;;;;;;;;;5411673;26;19999;-65
2024/04/23 05:34:08;;;;;;;13.45;8.10;;;;;;;;;;5410763;26;20060;-65
2024/04/23 05:36:34;;;;;;;12.88;7.45;;;;;;;;;;5411816;26;20007;-66
2024/04/23 05:39:00;;;;;;;13.27;7.88;;;;;;;;;;5411747;26;19991;-67
2024/04/23 05:41:27;;;;;;;13.30;7.90;;;;;;;;;;5412250;26;20434;-65
2024/04/23 05:43:54;;;;;;;13.32;8.00;;;;;;;;;;5411397;26;20004;-64
2024/04/23 05:46:20;;;;;;;13.52;8.20;;;;;;;;;;5409258;26;20010;-65
2024/04/23 05:49:05;;;;;;;13.55;8.63;;;;;;;;;;5411536;26;19992;-64
2024/04/23 05:51:50;;;;;;;13.65;8.80;;;;;;;;;;5411761;26;19995;-65
2024/04/23 05:54:34;;;;;;;13.60;8.50;;;;;;;;;;5410954;26;20061;-65
2024/04/23 05:57:00;;;;;;;13.63;8.63;;;;;;;;;;5411501;26;20023;-65
2024/04/23 05:59:26;;;;;;;13.57;8.50;;;;;;;;;;5411775;26;20060;-65
2024/04/23 06:01:52;;;;;;;13.55;8.35;;;;;;;;;;5411165;26;19992;-64
2024/04/23 06:04:19;;;;;;;13.52;8.48;;;;;;;;;;5411518;26;20007;-65
2024/04/23 06:06:45;;;;;;;13.60;8.60;;;;;;;;;;5411300;26;20082;-64
2024/04/23 06:09:11;;;;;;;13.65;8.68;;;;;;;;;;5411006;26;20010;-65
2024/04/23 06:11:37;;;;;;;13.55;8.40;;;;;;;;;;5409978;26;20480;-65
2024/04/23 06:14:07;;;;;;;13.60;8.68;;;;;;;;;;5410736;26;19995;-63
2024/04/23 06:16:33;;;;;;;13.70;8.85;;;;;;;;;;5410944;26;20310;-65
2024/04/23 06:18:59;;;;;;;13.70;8.95;;;;;;;;;;5410734;26;20002;-64
2024/04/23 06:21:25;;;;;;;13.65;8.80;;;;;;;;;;5409151;26;20006;-64
2024/04/23 06:23:51;;;;;;;13.55;8.60;;;;;;;;;;5411028;26;20429;-64
2024/04/23 06:26:17;;;;;;;13.70;8.90;;;;;;;;;;5430668;26;20010;-64
2024/04/23 06:28:43;;;;;;;13.80;9.20;;;;;;;;;;5446856;26;19998;-65
2024/04/23 06:31:12;;;;;;;13.55;8.50;;;;;;;;;;5446502;26;20041;-64
2024/04/23 06:33:39;;;;;;;13.68;9.07;;;;;;;;;;5446577;26;20005;-64
2024/04/23 06:36:05;;;;;;;13.60;8.68;;;;;;;;;;5447039;26;20005;-65
2024/04/23 06:38:31;;;;;;;13.65;8.85;;;;;;;;;;5447518;26;20436;-66
2024/04/23 06:40:57;;;;;;;13.68;8.88;;;;;;;;;;5447346;26;20042;-65
2024/04/23 06:43:23;;;;;;;13.68;8.98;;;;;;;;;;5445740;26;20031;-67
2024/04/23 06:45:52;;;;;;;13.73;9.00;;;;;;;;;;5443837;26;19999;-65
2024/04/23 06:48:18;;;;;;;13.77;9.07;;;;;;;;;;5447424;26;20027;-63
2024/04/23 06:50:44;;;;;;;13.73;9.00;;;;;;;;;;5446686;26;20309;-64
2024/04/23 06:53:13;;;;;;;13.65;8.95;;;;;;;;;;5445279;26;20005;-65
2024/04/23 06:55:39;;;;;;;13.63;8.82;;;;;;;;;;5447292;26;20006;-65
2024/04/23 06:58:05;;;;;;;13.93;9.52;;;;;;;;;;5446692;26;20343;-64
2024/04/23 07:00:31;;;;;;;13.65;8.70;;;;;;;;;;5446766;26;20425;-65
2024/04/23 07:02:57;;;;;;;13.65;8.80;;;;;;;;;;5446155;26;19999;-63
2024/04/23 07:05:23;;;;;;;13.57;8.70;;;;;;;;;;5447079;26;20013;-64
2024/04/23 07:07:52;;;;;;;13.80;9.27;;;;;;;;;;5448148;26;19998;-64
2024/04/23 07:10:18;;;;;;;13.75;9.13;;;;;;;;;;5447632;26;20006;-64
2024/04/23 07:12:44;;;;;;;13.80;9.35;;;;;;;;;;5445605;26;19991;-64
2024/04/23 07:15:10;;;;;;;13.95;9.55;;;;;;;;;;5445202;26;20003;-65
2024/04/23 07:17:36;;;;;;;13.80;9.10;;;;;;;;;;5444456;26;20332;-64
2024/04/23 07:20:02;;;;;;;13.65;8.70;;;;;;;;;;5446306;26;20024;-65
2024/04/23 07:22:28;;;;;;;13.65;8.85;;;;;;;;;;5445804;26;19994;-66
2024/04/23 07:24:54;;;;;;;13.88;9.43;;;;;;;;;;5445337;26;20445;-65
2024/04/23 07:27:20;;;;;;;13.93;9.52;;;;;;;;;;5411059;26;20044;-64
2024/04/23 07:29:46;;;;;;;13.90;9.43;;;;;;;;;;5410258;26;20004;-63
2024/04/23 07:32:14;;;;;;;14.00;9.70;;;;;;;;;;5409381;26;20007;-64
2024/04/23 07:34:40;;;;;;;;;;;;;;;;;;5408936;26;20089;-64
2024/04/23 07:37:06;;;;;;;13.75;9.10;;;;;;;;;;5410488;26;19924;-65
2024/04/23 07:39:32;;;;;;;13.80;9.15;;;;;;;;;;5410247;26;20420;-64
2024/04/23 07:41:58;;;;;;;13.90;9.55;;;;;;;;;;5409634;26;20020;-64
2024/04/23 07:44:24;;;;;;;13.90;9.50;;;;;;;;;;5409475;26;20064;-65
2024/04/23 07:46:50;;;;;;;13.77;9.15;;;;;;;;;;5410255;26;20000;-66
2024/04/23 07:49:16;;;;;;;13.90;9.55;;;;;;;;;;5407730;26;20002;-66
2024/04/23 07:51:42;;;;;;;13.80;9.20;;;;;;;;;;5410241;26;19999;-66
2024/04/23 07:54:08;;;;;;;13.77;9.32;;;;;;;;;;5410550;26;20004;-66
2024/04/23 07:56:34;;;;;;;13.88;9.50;;;;;;;;;;5411739;26;20010;-66
2024/04/23 07:59:00;;;;;;;13.98;9.73;;;;;;;;;;5413487;26;19996;-66
2024/04/23 08:01:26;;;;;;;13.82;9.32;;;;;;;;;;5413838;26;20002;-66
2024/04/23 08:03:52;;;;;;;13.68;8.90;;;;;;;;;;5413884;26;20055;-66
2024/04/23 08:06:18;;;;;;;13.80;9.25;;;;;;;;;;5413871;26;20329;-66
2024/04/23 08:08:44;;;;;;;14.07;10.00;;;;;;;;;;5413601;26;19991;-67
2024/04/23 08:11:10;;;;;;;13.90;9.60;;;;;;;;;;5413646;26;20023;-67
2024/04/23 08:13:36;;;;;;;14.00;9.80;;;;;;;;;;5413449;26;20010;-66
2024/04/23 08:16:01;;;;;;;14.20;10.20;;;;;;;;;;5413127;26;20033;-65
2024/04/23 08:18:28;;;;;;;13.95;9.85;;;;;;;;;;5413579;26;20322;-66
2024/04/23 08:20:54;;;;;;;14.00;9.82;;;;;;;;;;5414226;26;20023;-67
2024/04/23 08:23:20;;;;;;;14.15;10.27;;;;;;;;;;5413040;26;20010;-67
2024/04/23 08:25:49;;;;;;;14.20;10.20;;;;;;;;;;5413301;26;20023;-64
2024/04/23 08:28:15;;;;;;;14.40;10.77;;;;;;;;;;5413246;26;19996;-66
2024/04/23 08:30:43;;;;;;;14.50;11.05;;;;;;;;;;5412969;26;20072;-65
2024/04/23 08:33:09;;;;;;;14.20;10.20;;;;;;;;;;5413206;26;19992;-65
2024/04/23 08:35:35;;;;;;;14.18;10.27;;;;;;;;;;5411238;26;20065;-65
2024/04/23 08:38:01;;;;;;;14.40;10.80;;;;;;;;;;5412350;26;20011;-66
2024/04/23 08:40:27;;;;;;;14.30;10.65;;;;;;;;;;5412553;26;20021;-67
2024/04/23 08:42:54;;;;;;;14.30;10.48;;;;;;;;;;5412787;26;19992;-64
2024/04/23 08:45:23;;;;;;;14.35;10.65;;;;;;;;;;5413015;26;19996;-65
2024/04/23 08:47:49;;;;;;;;;;;;;;;;;;5414300;26;20003;-66
2024/04/23 08:50:17;;;;;;;15.43;11.57;;;;;;;;;;5413032;26;20367;-64
2024/04/23 08:52:44;;;;;;;14.38;10.85;;;;;;;;;;5412670;26;20293;-63
2024/04/23 08:55:10;;;;;;;18.10;13.60;;;;;;;;;;5412202;26;20003;-64
2024/04/23 08:57:39;;;;;;;14.32;10.77;;;;;;;;;;5412677;26;20006;-62
2024/04/23 09:00:05;;;;;;;14.30;10.88;;;;;;;;;;5412775;26;20374;-65
2024/04/23 09:02:33;;;;;;;14.40;10.90;;;;;;;;;;5411715;26;20033;-65
2024/04/23 09:05:00;;;;;;;14.30;10.73;;;;;;;;;;5412839;26;20066;-64
2024/04/23 09:07:26;;;;;;;14.45;10.90;;;;;;;;;;5412843;26;19992;-64
2024/04/23 09:09:52;;;;;;;14.52;11.38;;;;;;;;;;5412723;26;19995;-64
2024/04/23 09:12:19;;;;;;;14.25;10.45;;;;;;;;;;5411040;26;20024;-65
2024/04/23 09:14:48;;;;;;;14.18;10.32;;;;;;;;;;5412103;26;20384;-63
2024/04/23 09:17:14;;;;;;;14.40;10.82;;;;;;;;;;5412367;26;20027;-65
2024/04/23 09:19:41;;;;;;;14.10;10.20;;;;;;;;;;5411895;26;20003;-64
2024/04/23 09:22:07;;;;;;;14.10;10.20;;;;;;;;;;5411460;26;20002;-63
2024/04/23 09:24:33;;;;;;;14.15;10.20;;;;;;;;;;5411324;26;20213;-64
2024/04/23 09:26:59;;;;;;;14.23;10.40;;;;;;;;;;5411925;26;20023;-64
2024/04/23 09:29:29;;;;;;;14.13;10.20;;;;;;;;;;5410745;26;19992;-64
2024/04/23 09:31:56;;;;;;;13.90;9.80;;;;;;;;;;5411852;26;19999;-63
2024/04/23 09:34:29;;;;;;;14.00;9.80;;;;;;;;;;5411396;26;20045;-64
2024/04/23 09:36:55;;;;;;;14.10;10.10;;;;;;;;;;5412573;26;20010;-63
2024/04/23 09:39:22;;;;;;;14.05;9.93;;;;;;;;;;5411771;26;20062;-63
2024/04/23 09:41:55;;;;;;;14.25;10.35;;;;;;;;;;5411328;26;20030;-63
2024/04/23 09:44:21;;;;;;;14.00;9.88;;;;;;;;;;5410508;26;19999;-63
2024/04/23 09:46:47;;;;;;;14.20;10.40;;;;;;;;;;5409788;26;19995;-63
2024/04/23 09:49:13;;;;;;;14.15;10.27;;;;;;;;;;5410817;26;20460;-63
2024/04/23 09:51:39;;;;;;;14.23;10.40;;;;;;;;;;5411387;26;20003;-63
2024/04/23 09:54:05;;;;;;;14.27;10.45;;;;;;;;;;5411262;26;19992;-58
2024/04/23 09:56:31;;;;;;;14.50;10.40;;;;;;;;;;5412538;26;20087;-64
2024/04/23 09:58:57;;;;;;;14.30;10.70;;;;;;;;;;5412543;26;20015;-64
2024/04/23 10:01:27;;;;;;;14.07;9.93;;;;;;;;;;5411985;26;20408;-63
2024/04/23 10:03:54;;;;;;;14.00;9.88;;;;;;;;;;5410746;26;19992;-63
2024/04/23 10:06:25;;;;;;;14.30;10.52;;;;;;;;;;5411848;26;20046;-64
2024/04/23 10:09:01;;;;;;;13.82;9.38;;;;;;;;;;5410007;26;19995;-64
2024/04/23 10:11:49;;;;;;;13.95;9.70;;;;;;;;;;5411632;26;19996;-65
2024/04/23 10:14:23;;;;;;;14.10;10.20;;;;;;;;;;5411120;26;20004;-63
2024/04/23 10:16:58;;;;;;;13.90;9.50;;;;;;;;;;5411970;26;20000;-61
2024/04/23 10:19:29;;;;;;;13.95;9.73;;;;;;;;;;5410568;26;20442;-63
2024/04/23 10:21:55;;;;;;;14.13;9.80;;;;;;;;;;5411716;26;20003;-63
2024/04/23 10:24:23;;;;;;;14.07;10.00;;;;;;;;;;5411109;26;20461;-63
2024/04/23 10:26:49;;;;;;;13.90;9.45;;;;;;;;;;5412523;26;20185;-63
2024/04/23 10:29:15;;;;;;;14.10;10.00;;;;;;;;;;5411996;26;20022;-64
2024/04/23 10:31:42;;;;;;;13.90;9.57;;;;;;;;;;5411435;26;20007;-64
2024/04/23 10:34:08;;;;;;;14.23;10.50;;;;;;;;;;5411006;26;20006;-61
2024/04/23 10:36:42;;;;;;;14.23;10.48;;;;;;;;;;5411107;26;20326;-64
2024/04/23 10:39:11;;;;;;;14.10;10.20;;;;;;;;;;5411282;26;20011;-64
2024/04/23 10:41:40;;;;;;;14.10;10.10;;;;;;;;;;5410306;26;20530;-64
2024/04/23 10:44:08;;;;;;;14.30;10.70;;;;;;;;;;5410544;26;20000;-63
2024/04/23 10:46:34;;;;;;;14.50;11.02;;;;;;;;;;5409280;26;20074;-63
2024/04/23 10:49:06;;;;;;;14.20;10.40;;;;;;;;;;5408826;26;20023;-64
2024/04/23 10:51:33;;;;;;;14.30;10.60;;;;;;;;;;5410809;26;20006;-62
2024/04/23 10:53:59;;;;;;;14.30;10.68;;;;;;;;;;5411015;26;20422;-61
2024/04/23 10:56:26;;;;;;;14.38;10.80;;;;;;;;;;5411238;26;20064;-65
2024/04/23 10:59:10;;;;;;;14.38;10.98;;;;;;;;;;5410915;26;20002;-64
2024/04/23 11:01:47;;;;;;;14.40;10.93;;;;;;;;;;5411181;26;20010;-63
2024/04/23 11:04:13;;;;;;;14.43;11.00;;;;;;;;;;5410658;26;20019;-64
2024/04/23 11:06:41;;;;;;;14.30;10.60;;;;;;;;;;5411583;26;20333;-64
2024/04/23 11:09:33;;;;;;;14.25;10.43;;;;;;;;;;5410647;26;20050;-64
2024/04/23 11:11:59;;;;;;;14.30;10.70;;;;;;;;;;5405680;26;19995;-61
2024/04/23 11:14:35;;;;;;;14.30;10.60;;;;;;;;;;5409957;26;19995;-62
2024/04/23 11:17:02;;;;;;;14.40;11.00;;;;;;;;;;5410832;26;20354;-60
2024/04/23 11:19:47;;;;;;;14.38;10.70;;;;;;;;;;5410644;26;19999;-60
2024/04/23 11:22:15;;;;;;;14.40;10.50;;;;;;;;;;5410258;26;19996;-65
2024/04/23 11:24:42;;;;;;;14.20;10.40;;;;;;;;;;5410159;26;20027;-62
2024/04/23 11:27:08;;;;;;;14.95;12.00;;;;;;;;;;5410158;26;20035;-64
2024/04/23 11:29:34;;;;;;;14.40;10.85;;;;;;;;;;5410270;26;19992;-64
2024/04/23 11:32:00;;;;;;;14.20;10.38;;;;;;;;;;5411837;26;20000;-63
2024/04/23 11:34:27;;;;;;;14.23;10.35;;;;;;;;;;5411732;26;19996;-64
2024/04/23 11:36:53;;;;;;;15.82;11.90;;;;;;;;;;5413908;26;19996;-65
2024/04/23 11:39:25;;;;;;;16.25;10.90;;;;;;;;;;5413703;26;20157;-64
2024/04/23 11:41:54;;;;;;;14.13;10.20;;;;;;;;;;5414033;26;20006;-65
2024/04/23 11:44:20;;;;;;;14.18;10.20;;;;;;;;;;5413800;26;20010;-65
2024/04/23 11:46:49;;;;;;;14.27;10.55;;;;;;;;;;5411964;26;20003;-64
2024/04/23 11:49:18;;;;;;;14.50;11.20;;;;;;;;;;5414104;26;20045;-65
2024/04/23 11:51:45;;;;;;;14.30;10.60;;;;;;;;;;5414254;26;20005;-66
2024/04/23 11:54:11;;;;;;;14.20;10.45;;;;;;;;;;5413533;26;20002;-66
2024/04/23 11:56:37;;;;;;;14.57;11.27;;;;;;;;;;5413876;26;19999;-65
2024/04/23 11:59:03;;;;;;;14.50;11.45;;;;;;;;;;5414250;26;19991;-66
2024/04/23 12:01:29;;;;;;;14.20;10.50;;;;;;;;;;5413654;26;20000;-67
2024/04/23 12:03:56;;;;;;;17.48;10.75;;;;;;;;;;5412929;26;20356;-66
2024/04/23 12:06:23;;;;;;;14.40;11.05;;;;;;;;;;5413772;26;20027;-66
2024/04/23 12:08:49;;;;;;;14.35;10.75;;;;;;;;;;5413115;26;20039;-65
2024/04/23 12:11:15;;;;;;;14.32;10.80;;;;;;;;;;5413706;26;20068;-63
2024/04/23 12:13:47;;;;;;;14.63;11.48;;;;;;;;;;5410862;26;19998;-65
2024/04/23 12:16:13;;;;;;;14.10;10.00;;;;;;;;;;5414209;26;20006;-66
2024/04/23 12:18:42;;;;;;;14.30;10.70;;;;;;;;;;5414428;26;19992;-66
2024/04/23 12:21:08;;;;;;;15.27;11.10;;;;;;;;;;5413716;26;20068;-69
2024/04/23 12:23:35;;;;;;;14.18;10.27;;;;;;;;;;5448307;26;20003;-66
2024/04/23 12:26:01;;;;;;;14.20;10.43;;;;;;;;;;5433543;26;20011;-66
2024/04/23 12:28:28;;;;;;;14.20;10.40;;;;;;;;;;5412631;26;20007;-66
2024/04/23 12:30:55;;;;;;;14.98;11.65;;;;;;;;;;5412852;26;19999;-67
2024/04/23 12:33:21;;;;;;;17.70;11.30;;;;;;;;;;5410470;26;20423;-67
2024/04/23 12:35:47;;;;;;;14.48;10.90;;;;;;;;;;5412615;26;19991;-64
2024/04/23 12:38:13;;;;;;;14.00;9.93;;;;;;;;;;5412921;26;20024;-61
2024/04/23 12:40:39;;;;;;;14.10;10.10;;;;;;;;;;5413088;26;20781;-63
2024/04/23 12:43:09;;;;;;;14.18;10.57;;;;;;;;;;5412036;26;19996;-63
2024/04/23 12:45:35;;;;;;;14.98;10.60;;;;;;;;;;5411808;26;20507;-64
2024/04/23 12:48:03;;;;;;;14.18;10.25;;;;;;;;;;5413659;26;20072;-63
2024/04/23 12:50:29;;;;;;;13.93;9.70;;;;;;;;;;5411267;26;19995;-64
2024/04/23 12:52:55;;;;;;;15.10;11.82;;;;;;;;;;5411928;26;20085;-64
2024/04/23 12:55:24;;;;;;;14.43;11.00;;;;;;;;;;5412920;26;20324;-65
2024/04/23 12:57:50;;;;;;;14.60;11.60;;;;;;;;;;5410624;26;20337;-65
2024/04/23 13:00:16;;;;;;;14.30;10.65;;;;;;;;;;5410894;26;20006;-68
2024/04/23 13:02:42;;;;;;;14.40;10.90;;;;;;;;;;5411070;26;19992;-66
2024/04/23 13:05:08;;;;;;;14.48;11.07;;;;;;;;;;5408867;26;20046;-63
2024/04/23 13:07:34;;;;;;;14.95;11.65;;;;;;;;;;5410162;26;20011;-62
2024/04/23 13:10:00;;;;;;;17.20;11.50;;;;;;;;;;5425352;26;20305;-67
2024/04/23 13:12:26;;;;;;;14.55;11.27;;;;;;;;;;5445173;26;20005;-65
2024/04/23 13:14:52;;;;;;;14.48;11.07;;;;;;;;;;5446207;26;19986;-65
2024/04/23 13:17:17;;;;;;;14.43;11.00;;;;;;;;;;5446485;26;20380;-64
2024/04/23 13:19:44;;;;;;;14.50;11.40;;;;;;;;;;5435625;26;20010;-63
2024/04/23 13:22:09;;;;;;;14.48;11.00;;;;;;;;;;5447132;26;19999;-64
2024/04/23 13:24:35;;;;;;;14.30;10.70;;;;;;;;;;5448376;26;20656;-65
2024/04/23 13:27:01;;;;;;;14.27;10.50;;;;;;;;;;5417346;26;20044;-66
2024/04/23 13:29:30;;;;;;;14.38;10.77;;;;;;;;;;5411895;26;20064;-66
2024/04/23 13:31:56;;;;;;;;;;;;;;;;;;5412463;26;20010;-67
2024/04/23 13:34:22;;;;;;;14.27;10.88;;;;;;;;;;5411762;26;19932;-67
2024/04/23 13:36:48;;;;;;;14.80;11.50;;;;;;;;;;5410668;26;20068;-67
2024/04/23 13:39:14;;;;;;;14.50;10.50;;;;;;;;;;5416534;26;20003;-67
2024/04/23 13:41:40;;;;;;;14.82;11.00;;;;;;;;;;5438101;26;20068;-67
2024/04/23 13:44:06;;;;;;;14.73;11.30;;;;;;;;;;5448288;26;20005;-67
2024/04/23 13:46:32;;;;;;;15.63;11.30;;;;;;;;;;5446905;26;20071;-66
2024/04/23 13:48:58;;;;;;;14.52;10.85;;;;;;;;;;5439277;26;20119;-67
2024/04/23 13:51:24;;;;;;;53.50;20.45;;;;;;;;;;5446741;26;20061;-66
2024/04/23 13:53:50;;;;;;;14.23;10.43;;;;;;;;;;5446739;26;19995;-66
2024/04/23 13:56:16;;;;;;;14.50;10.80;;;;;;;;;;5448043;26;20455;-66
2024/04/23 13:58:42;;;;;;;14.40;10.85;;;;;;;;;;5447876;26;19994;-67
2024/04/23 14:01:09;;;;;;;14.32;10.85;;;;;;;;;;5446221;26;20002;-66
2024/04/23 14:03:39;;;;;;;14.90;11.05;;;;;;;;;;5482950;26;20005;-69
2024/04/23 14:06:05;;;;;;;15.50;11.80;;;;;;;;;;5450278;26;19998;-67
2024/04/23 14:08:33;;;;;;;14.50;10.90;;;;;;;;;;5484503;26;20527;-66
2024/04/23 14:10:59;;;;;;;14.32;10.70;;;;;;;;;;5484281;26;20077;-66
2024/04/23 14:13:25;;;;;;;14.02;10.32;;;;;;;;;;5483713;26;20005;-66
2024/04/23 14:15:51;;;;;;;15.20;10.77;;;;;;;;;;5482381;26;19998;-66
2024/04/23 14:18:17;;;;;;;14.13;10.35;;;;;;;;;;5484037;26;20006;-63
2024/04/23 14:20:43;;;;;;;14.50;11.23;;;;;;;;;;5482852;26;20412;-66
2024/04/23 14:23:10;;;;;;;14.40;11.05;;;;;;;;;;5485756;26;20396;-64
2024/04/23 14:25:36;;;;;;;14.32;10.70;;;;;;;;;;5474686;26;19998;-64
2024/04/23 14:28:02;;;;;;;14.40;10.85;;;;;;;;;;5448891;26;19995;-67
2024/04/23 14:30:28;;;;;;;14.60;11.20;;;;;;;;;;5445623;26;20071;-67